Time;durP1;ratioP1;P1;durP2;ratioP2;P2;SDS_P1;SDS_P2;PMS_P1;PMS_P2;Temp;Humidity;BMP_temperature;BMP_pressure;BME280_temperature;BME280_humidity;BME280_pressure;Samples;Min_cycle;Max_cycle;Signal;HPM_P1;HPM_P2
2021/07/21 00:01:32;;;;;;;27.10;18.90;;;19.00;75.40;;;;;;5078549;28;20036;-70
2021/07/21 00:03:58;;;;;;;29.20;19.48;;;18.90;75.30;;;;;;5078646;28;20445;-68
2021/07/21 00:06:23;;;;;;;30.83;19.58;;;18.90;75.50;;;;;;5077307;28;20039;-69
2021/07/21 00:08:49;;;;;;;28.75;20.23;;;18.90;75.50;;;;;;5080866;28;20029;-69
2021/07/21 00:14:02;;;;;;;30.00;21.60;;;18.80;75.90;;;;;;5082409;28;20058;-70
2021/07/21 00:16:33;;;;;;;33.55;21.70;;;18.80;76.00;;;;;;5080635;28;20485;-72
2021/07/21 00:19:05;;;;;;;29.40;21.02;;;18.70;76.50;;;;;;5078921;28;20024;-70
2021/07/21 00:21:31;;;;;;;30.67;20.73;;;18.60;77.00;;;;;;5075435;28;20059;-71
2021/07/21 00:23:57;;;;;;;29.38;21.45;;;18.60;77.00;;;;;;5070090;28;20044;-70
2021/07/21 00:26:23;;;;;;;33.35;23.25;;;18.50;77.70;;;;;;5077706;28;20516;-70
2021/07/21 00:28:48;;;;;;;35.17;21.92;;;18.40;78.00;;;;;;5076983;28;20037;-70
2021/07/21 00:31:17;;;;;;;32.92;21.95;;;18.40;78.30;;;;;;5075436;28;20161;-73
2021/07/21 00:33:48;;;;;;;31.50;21.63;;;18.40;78.50;;;;;;5082917;28;20040;-70
2021/07/21 00:36:14;;;;;;;28.60;20.75;;;18.40;78.50;;;;;;5074375;28;20035;-69
2021/07/21 00:38:40;;;;;;;29.92;19.77;;;18.50;78.30;;;;;;5086138;28;20035;-70
2021/07/21 00:41:05;;;;;;;30.70;22.40;;;18.50;78.10;;;;;;5079147;28;20123;-71
2021/07/21 00:43:31;;;;;;;30.40;22.30;;;18.50;78.00;;;;;;5082084;28;20040;-70
2021/07/21 00:45:58;;;;;;;29.77;21.80;;;18.50;78.10;;;;;;5081882;28;20040;-70
2021/07/21 00:48:24;;;;;;;30.63;22.33;;;18.40;78.30;;;;;;5078149;28;20041;-70
2021/07/21 00:50:54;;;;;;;35.20;22.98;;;18.40;78.20;;;;;;5073662;28;20085;-72
2021/07/21 00:53:19;;;;;;;31.90;21.23;;;18.30;78.30;;;;;;5081021;28;20033;-70
2021/07/21 00:55:46;;;;;;;33.75;22.38;;;18.30;78.20;;;;;;5077363;28;20455;-73
2021/07/21 00:58:13;;;;;;;33.85;22.23;;;18.30;78.10;;;;;;5072262;28;20467;-70
2021/07/21 01:00:39;;;;;;;30.50;20.73;;;18.20;78.30;;;;;;5076059;28;20029;-70
2021/07/21 01:03:05;;;;;;;28.92;21.02;;;18.10;78.30;;;;;;5077627;28;20028;-71
2021/07/21 01:05:33;;;;;;;30.10;21.67;;;18.10;78.70;;;;;;5073673;28;20052;-70
2021/07/21 01:07:59;;;;;;;31.85;21.90;;;18.00;79.20;;;;;;5073064;28;20028;-70
2021/07/21 01:10:27;;;;;;;30.58;22.33;;;17.90;79.30;;;;;;5077752;28;20314;-70
2021/07/21 01:13:21;;;;;;;35.03;23.92;;;17.80;79.50;;;;;;5070860;28;20033;-69
2021/07/21 01:16:05;;;;;;;33.20;22.23;;;17.80;79.70;;;;;;5074632;28;20050;-69
2021/07/21 01:18:46;;;;;;;32.30;22.63;;;17.70;80.00;;;;;;5076674;28;20071;-70
2021/07/21 01:21:15;;;;;;;35.95;23.13;;;17.70;80.20;;;;;;5082777;28;20286;-70
2021/07/21 01:23:46;;;;;;;32.10;22.83;;;17.60;80.50;;;;;;5080361;28;20053;-70
2021/07/21 01:26:17;;;;;;;34.63;23.17;;;17.60;80.70;;;;;;5075282;28;20522;-73
2021/07/21 01:28:46;;;;;;;35.95;24.80;;;17.60;80.60;;;;;;5079537;28;20037;-72
2021/07/21 01:31:20;;;;;;;32.85;23.65;;;17.50;80.90;;;;;;5078672;28;20087;-70
2021/07/21 01:33:46;;;;;;;32.35;23.70;;;17.50;81.30;;;;;;5078435;28;20057;-71
2021/07/21 01:36:23;;;;;;;31.95;22.92;;;17.50;81.20;;;;;;5073159;28;20382;-70
2021/07/21 01:38:51;;;;;;;34.40;24.52;;;17.50;81.00;;;;;;5073404;28;20123;-74
2021/07/21 01:41:28;;;;;;;34.53;23.15;;;17.50;81.10;;;;;;5080426;28;20059;-70
2021/07/21 01:44:11;;;;;;;32.65;23.10;;;17.50;81.00;;;;;;5078168;28;20144;-69
2021/07/21 01:46:39;;;;;;;33.10;23.42;;;17.50;81.00;;;;;;5076109;28;20044;-70
2021/07/21 01:49:07;;;;;;;36.00;24.40;;;17.50;81.00;;;;;;5075197;28;20062;-70
2021/07/21 01:51:33;;;;;;;34.10;25.02;;;17.50;81.00;;;;;;5077847;28;20037;-70
2021/07/21 01:54:02;;;;;;;31.67;23.75;;;17.50;81.10;;;;;;5077639;28;20047;-72
2021/07/21 01:56:30;;;;;;;38.85;24.55;;;17.50;81.20;;;;;;5081030;28;20036;-72
2021/07/21 01:58:57;;;;;;;36.67;24.33;;;17.60;81.10;;;;;;5076107;28;20498;-70
2021/07/21 02:01:27;;;;;;;34.28;23.77;;;17.60;81.20;;;;;;5072496;28;20451;-69
2021/07/21 02:03:57;;;;;;;35.38;23.83;;;17.50;81.30;;;;;;5072632;28;20048;-70
2021/07/21 02:06:23;;;;;;;40.05;24.85;;;17.50;81.30;;;;;;5073866;28;20393;-70
2021/07/21 02:08:50;;;;;;;35.83;23.92;;;17.40;81.30;;;;;;5078227;28;20039;-71
2021/07/21 02:11:15;;;;;;;35.03;24.25;;;17.40;81.30;;;;;;5092552;28;20459;-70
2021/07/21 02:13:42;;;;;;;39.53;23.88;;;17.40;81.50;;;;;;5075727;28;20151;-73
2021/07/21 02:16:09;;;;;;;40.20;25.60;;;17.30;81.50;;;;;;5070747;28;20036;-70
2021/07/21 02:18:36;;;;;;;32.00;23.83;;;17.30;81.70;;;;;;5075286;28;20446;-70
2021/07/21 02:21:05;;;;;;;38.28;24.27;;;17.30;81.80;;;;;;5066342;28;20028;-70
2021/07/21 02:23:33;;;;;;;37.92;24.98;;;17.30;81.80;;;;;;5075026;28;20040;-71
2021/07/21 02:26:00;;;;;;;36.30;24.83;;;17.20;81.80;;;;;;5074748;28;20024;-70
2021/07/21 02:28:26;;;;;;;36.15;24.58;;;17.20;82.00;;;;;;5079501;28;20028;-70
2021/07/21 02:30:54;;;;;;;34.58;24.10;;;17.10;82.00;;;;;;5069947;28;21157;-74
2021/07/21 02:33:27;;;;;;;37.60;25.38;;;17.10;82.20;;;;;;5075454;28;20033;-70
2021/07/21 02:35:53;;;;;;;38.25;24.80;;;17.10;82.20;;;;;;5074158;28;20034;-69
2021/07/21 02:38:20;;;;;;;38.95;25.90;;;17.10;82.20;;;;;;5073175;28;20028;-70
2021/07/21 02:40:45;;;;;;;33.88;24.27;;;17.10;82.40;;;;;;5077801;28;20083;-69
2021/07/21 02:43:12;;;;;;;35.95;25.38;;;17.10;82.40;;;;;;5074207;28;20495;-70
2021/07/21 02:45:38;;;;;;;36.05;24.20;;;17.10;82.40;;;;;;5075222;28;20416;-69
2021/07/21 02:48:05;;;;;;;36.72;24.63;;;17.10;82.50;;;;;;5073572;28;20043;-69
2021/07/21 02:50:31;;;;;;;37.05;24.70;;;17.10;82.50;;;;;;5075684;28;20397;-70
2021/07/21 02:53:03;;;;;;;38.28;25.60;;;17.10;82.60;;;;;;5078398;28;20132;-70
2021/07/21 02:55:31;;;;;;;38.75;25.45;;;17.10;82.60;;;;;;5071634;28;20097;-70
2021/07/21 02:58:06;;;;;;;40.53;26.23;;;17.00;82.60;;;;;;5080071;28;20024;-71
2021/07/21 03:00:33;;;;;;;37.63;24.20;;;17.00;82.70;;;;;;5077820;28;20494;-70
2021/07/21 03:03:05;;;;;;;38.35;23.73;;;16.90;82.90;;;;;;5079027;28;20033;-70
2021/07/21 03:05:32;;;;;;;39.05;26.00;;;17.00;83.00;;;;;;5071842;28;20048;-70
2021/07/21 03:07:59;;;;;;;38.08;24.50;;;17.00;82.70;;;;;;5075118;28;20047;-71
2021/07/21 03:10:26;;;;;;;40.20;25.17;;;16.90;82.80;;;;;;5074798;28;20056;-70
2021/07/21 03:13:04;;;;;;;37.38;26.35;;;16.90;82.70;;;;;;5079676;28;20549;-70
2021/07/21 03:15:33;;;;;;;34.67;23.83;;;16.90;82.70;;;;;;5071374;28;20053;-69
2021/07/21 03:18:01;;;;;;;38.22;24.30;;;16.80;82.90;;;;;;5075437;28;20059;-70
2021/07/21 03:20:28;;;;;;;35.80;24.63;;;16.80;83.00;;;;;;5074125;28;20033;-70
2021/07/21 03:22:57;;;;;;;39.30;26.67;;;16.80;82.80;;;;;;5075270;28;20395;-70
2021/07/21 03:25:25;;;;;;;42.53;25.95;;;16.70;83.10;;;;;;5074666;28;20051;-71
2021/07/21 03:27:53;;;;;;;41.75;25.67;;;16.60;83.40;;;;;;5073767;28;20121;-70
2021/07/21 03:30:19;;;;;;;42.40;24.80;;;16.60;83.60;;;;;;5080324;28;20382;-71
2021/07/21 03:32:46;;;;;;;40.90;25.55;;;16.60;83.70;;;;;;5071776;28;20040;-70
2021/07/21 03:35:13;;;;;;;39.90;27.30;;;16.60;83.80;;;;;;5076851;28;20474;-69
2021/07/21 03:37:45;;;;;;;47.78;27.10;;;16.60;83.80;;;;;;5084418;28;20182;-70
2021/07/21 03:40:12;;;;;;;38.05;25.77;;;16.60;83.70;;;;;;5080487;28;20513;-70
2021/07/21 03:42:38;;;;;;;41.97;25.77;;;16.60;83.70;;;;;;5076525;28;20044;-69
2021/07/21 03:45:10;;;;;;;41.17;26.58;;;16.60;83.70;;;;;;5070793;28;20051;-70
2021/07/21 03:47:36;;;;;;;39.42;24.55;;;16.60;83.60;;;;;;5075192;28;20048;-70
2021/07/21 03:50:05;;;;;;;39.78;24.77;;;16.60;83.60;;;;;;5070622;28;20467;-69
2021/07/21 03:52:33;;;;;;;36.92;25.80;;;16.60;83.50;;;;;;5083430;28;20479;-71
2021/07/21 03:54:59;;;;;;;39.35;26.45;;;16.60;83.40;;;;;;5074073;28;20089;-70
2021/07/21 03:57:25;;;;;;;44.53;27.25;;;16.60;83.40;;;;;;5072605;28;20036;-72
2021/07/21 03:59:51;;;;;;;39.00;25.35;;;16.50;83.50;;;;;;5078712;28;20224;-69
2021/07/21 04:02:18;;;;;;;40.47;26.30;;;16.40;83.80;;;;;;5066729;28;20471;-70
2021/07/21 04:04:46;;;;;;;39.97;26.77;;;16.40;84.00;;;;;;5081106;28;20044;-70
2021/07/21 04:07:14;;;;;;;38.22;25.85;;;16.40;84.20;;;;;;5068468;28;20042;-70
2021/07/21 04:09:41;;;;;;;38.88;25.55;;;16.40;84.20;;;;;;5077667;28;20107;-71
2021/07/21 04:12:08;;;;;;;42.67;26.33;;;16.40;84.10;;;;;;5069132;28;20052;-72
2021/07/21 04:14:34;;;;;;;38.83;25.10;;;16.40;84.00;;;;;;5073328;28;20091;-70
2021/07/21 04:17:00;;;;;;;36.50;26.13;;;16.40;84.10;;;;;;5075858;28;20028;-71
2021/07/21 04:19:27;;;;;;;39.22;26.40;;;16.40;84.10;;;;;;5073506;28;20024;-72
2021/07/21 04:21:54;;;;;;;37.25;25.83;;;16.50;83.80;;;;;;5076322;28;20059;-70
2021/07/21 04:24:22;;;;;;;43.50;26.58;;;16.60;83.50;;;;;;5061576;28;20059;-71
2021/07/21 04:26:50;;;;;;;40.03;25.88;;;16.60;83.30;;;;;;5071138;28;20044;-70
2021/07/21 04:29:18;;;;;;;39.97;26.83;;;16.50;83.30;;;;;;5077212;28;20071;-69
2021/07/21 04:31:46;;;;;;;38.45;25.42;;;16.50;83.30;;;;;;5068481;28;20033;-70
2021/07/21 04:34:13;;;;;;;36.15;25.25;;;16.60;83.40;;;;;;5077452;28;20543;-70
2021/07/21 04:36:40;;;;;;;38.53;25.38;;;16.60;83.40;;;;;;5082238;28;20038;-70
2021/07/21 04:39:07;;;;;;;35.03;24.70;;;16.70;83.00;;;;;;5075717;28;20067;-70
2021/07/21 04:41:34;;;;;;;35.47;24.23;;;16.80;82.70;;;;;;5079126;28;20067;-71
2021/07/21 04:44:02;;;;;;;36.50;24.67;;;16.80;82.40;;;;;;5077285;28;20131;-70
2021/07/21 04:46:31;;;;;;;36.95;25.50;;;17.00;82.20;;;;;;5081669;28;20599;-71
2021/07/21 04:48:57;;;;;;;37.55;25.83;;;17.00;81.80;;;;;;5085285;28;20032;-69
2021/07/21 04:51:28;;;;;;;36.70;25.08;;;17.00;81.80;;;;;;5081695;28;20106;-74
2021/07/21 04:54:02;;;;;;;35.58;22.88;;;17.10;81.80;;;;;;5084434;28;20056;-70
2021/07/21 04:56:28;;;;;;;35.72;24.83;;;17.10;81.60;;;;;;5095103;28;20135;-74
2021/07/21 04:58:53;;;;;;;33.15;24.13;;;17.10;81.40;;;;;;5083102;28;20124;-69
2021/07/21 05:01:19;;;;;;;35.38;25.20;;;17.20;81.10;;;;;;5081105;28;20024;-68
2021/07/21 05:03:45;;;;;;;37.42;23.88;;;17.30;81.30;;;;;;5082691;28;20303;-69
2021/07/21 05:06:11;;;;;;;36.33;24.90;;;17.30;80.80;;;;;;5083292;28;20059;-72
2021/07/21 05:08:37;;;;;;;35.13;24.35;;;17.40;80.90;;;;;;5076129;28;20411;-69
2021/07/21 05:11:02;;;;;;;33.85;23.15;;;17.60;80.60;;;;;;5079208;28;20036;-68
2021/07/21 05:13:28;;;;;;;39.85;23.50;;;17.60;80.20;;;;;;5073140;28;20040;-70
2021/07/21 05:15:54;;;;;;;36.08;24.48;;;17.60;79.80;;;;;;5081484;28;20379;-68
2021/07/21 05:18:19;;;;;;;35.53;24.27;;;17.70;79.60;;;;;;5079850;28;20030;-68
2021/07/21 05:20:45;;;;;;;36.63;24.17;;;17.80;79.60;;;;;;5080672;28;20110;-68
2021/07/21 05:23:12;;;;;;;34.42;23.40;;;17.90;79.10;;;;;;5075012;28;20024;-70
2021/07/21 05:25:38;;;;;;;36.80;23.80;;;18.00;78.70;;;;;;5078663;28;20041;-69
2021/07/21 05:28:06;;;;;;;36.63;24.40;;;18.10;78.20;;;;;;5080488;28;20410;-69
2021/07/21 05:30:31;;;;;;;33.67;24.02;;;18.70;77.30;;;;;;5081279;28;20523;-69
2021/07/21 05:32:57;;;;;;;33.60;23.52;;;19.90;73.20;;;;;;5079770;28;20048;-69
2021/07/21 05:35:23;;;;;;;29.63;21.35;;;21.00;68.80;;;;;;5073359;28;20040;-69
2021/07/21 05:37:49;;;;;;;31.23;21.75;;;22.00;66.10;;;;;;5078466;28;20036;-69
2021/07/21 05:40:14;;;;;;;28.25;20.80;;;22.60;63.40;;;;;;5077337;28;20032;-69
2021/07/21 05:42:40;;;;;;;28.77;20.63;;;23.30;60.40;;;;;;5075259;28;20433;-69
2021/07/21 05:45:06;;;;;;;29.33;20.90;;;23.90;59.00;;;;;;5075782;28;20495;-70
2021/07/21 05:47:32;;;;;;;28.40;19.98;;;24.50;56.60;;;;;;5070362;28;20094;-70
2021/07/21 05:49:57;;;;;;;27.08;18.73;;;24.80;55.70;;;;;;5072649;28;20086;-69
2021/07/21 05:52:23;;;;;;;26.27;19.65;;;25.00;54.80;;;;;;5071797;28;20212;-69
2021/07/21 05:54:49;;;;;;;34.60;20.58;;;25.30;53.90;;;;;;5081009;28;20085;-73
2021/07/21 05:57:14;;;;;;;27.35;20.95;;;25.60;53.00;;;;;;5078429;28;20034;-70
2021/07/21 05:59:40;;;;;;;29.08;19.80;;;25.40;53.70;;;;;;5077868;28;20063;-71
2021/07/21 06:02:06;;;;;;;28.13;20.77;;;25.30;53.00;;;;;;5081414;28;20480;-71
2021/07/21 06:04:31;;;;;;;30.20;21.25;;;24.00;57.30;;;;;;5078958;28;20620;-70
2021/07/21 06:06:57;;;;;;;31.15;22.52;;;23.10;59.30;;;;;;5075278;28;20094;-69
2021/07/21 06:09:23;;;;;;;25.85;19.95;;;22.00;63.40;;;;;;5078755;28;20058;-69
2021/07/21 06:11:49;;;;;;;28.42;21.40;;;21.60;64.90;;;;;;5074137;28;20041;-69
2021/07/21 06:14:14;;;;;;;28.23;21.02;;;21.50;65.60;;;;;;5072278;28;20033;-69
2021/07/21 06:16:40;;;;;;;31.98;23.05;;;21.40;66.50;;;;;;5083260;28;20480;-69
2021/07/21 06:19:06;;;;;;;32.45;22.67;;;21.20;66.80;;;;;;5075033;28;20037;-70
2021/07/21 06:21:32;;;;;;;28.02;21.52;;;21.30;66.80;;;;;;5075259;28;20111;-70
2021/07/21 06:23:57;;;;;;;30.58;22.52;;;21.40;66.70;;;;;;5080438;28;20098;-69
2021/07/21 06:26:23;;;;;;;28.25;21.23;;;21.50;66.80;;;;;;5077515;28;20047;-72
2021/07/21 06:28:49;;;;;;;28.70;20.98;;;21.70;65.70;;;;;;5079113;28;20554;-70
2021/07/21 06:31:16;;;;;;;31.60;21.75;;;21.50;66.60;;;;;;5081262;28;20032;-69
2021/07/21 06:33:42;;;;;;;29.90;21.13;;;21.50;66.60;;;;;;5078628;28;20036;-70
2021/07/21 06:36:08;;;;;;;31.88;22.55;;;21.50;66.90;;;;;;5076153;28;20039;-70
2021/07/21 06:38:34;;;;;;;29.90;21.48;;;21.50;66.70;;;;;;5081634;28;20036;-69
2021/07/21 06:41:00;;;;;;;27.90;20.58;;;21.50;67.60;;;;;;5080720;28;20028;-69
2021/07/21 06:43:26;;;;;;;26.58;20.27;;;21.80;66.40;;;;;;5077369;28;20128;-70
2021/07/21 06:45:52;;;;;;;30.95;21.77;;;22.10;65.20;;;;;;5077396;28;20463;-69
2021/07/21 06:48:17;;;;;;;26.85;19.80;;;22.20;64.30;;;;;;5076190;28;20048;-69
2021/07/21 06:50:43;;;;;;;27.90;20.50;;;22.30;62.90;;;;;;5077311;28;20123;-73
2021/07/21 06:53:09;;;;;;;29.08;20.88;;;22.40;62.60;;;;;;5073534;28;20064;-70
2021/07/21 06:55:35;;;;;;;26.75;19.08;;;22.50;63.40;;;;;;5083382;28;20468;-70
2021/07/21 06:58:02;;;;;;;27.17;20.13;;;22.60;63.80;;;;;;5080141;28;20041;-73
2021/07/21 07:00:28;;;;;;;25.20;18.90;;;22.70;62.80;;;;;;5076947;28;20129;-69
2021/07/21 07:02:54;;;;;;;25.52;19.67;;;22.70;63.50;;;;;;5083100;28;20036;-69
2021/07/21 07:05:20;;;;;;;25.75;18.73;;;22.80;62.60;;;;;;5077118;28;20059;-70
2021/07/21 07:07:46;;;;;;;27.77;20.00;;;23.00;62.20;;;;;;5071830;28;20456;-70
2021/07/21 07:10:12;;;;;;;26.38;19.02;;;23.30;61.00;;;;;;5068343;28;20044;-69
2021/07/21 07:12:37;;;;;;;24.52;19.10;;;23.40;62.10;;;;;;5078170;28;20524;-70
2021/07/21 07:15:05;;;;;;;27.85;18.35;;;23.50;59.70;;;;;;5071596;28;20356;-73
2021/07/21 07:17:32;;;;;;;26.13;18.30;;;23.60;59.20;;;;;;5078945;28;20040;-72
2021/07/21 07:19:57;;;;;;;26.50;17.50;;;23.70;59.20;;;;;;5079983;28;20086;-70
2021/07/21 07:22:23;;;;;;;22.75;17.60;;;23.90;58.00;;;;;;5077668;28;20036;-68
2021/07/21 07:24:49;;;;;;;25.27;18.38;;;24.00;58.90;;;;;;5073465;28;20079;-69
2021/07/21 07:27:15;;;;;;;25.08;17.85;;;24.20;57.70;;;;;;5075732;28;20047;-68
2021/07/21 07:29:40;;;;;;;26.52;18.13;;;24.40;57.60;;;;;;5082095;28;20479;-67
2021/07/21 07:32:06;;;;;;;25.42;17.30;;;24.40;55.40;;;;;;5080076;28;20052;-67
2021/07/21 07:34:32;;;;;;;24.15;16.40;;;24.40;54.10;;;;;;5070048;28;20040;-68
2021/07/21 07:36:58;;;;;;;22.67;17.02;;;24.40;54.30;;;;;;5079562;28;20063;-68
2021/07/21 07:39:24;;;;;;;23.67;17.63;;;24.50;54.10;;;;;;5075630;28;20105;-69
2021/07/21 07:41:50;;;;;;;20.95;16.52;;;24.50;54.20;;;;;;5079133;28;20396;-68
2021/07/21 07:44:16;;;;;;;21.42;15.73;;;24.50;54.60;;;;;;5073760;28;20044;-69
2021/07/21 07:46:42;;;;;;;21.25;15.45;;;24.60;54.60;;;;;;5082678;28;20036;-70
2021/07/21 07:49:08;;;;;;;23.08;15.65;;;24.80;54.80;;;;;;5075128;28;20042;-69
2021/07/21 07:51:35;;;;;;;19.92;15.07;;;24.90;53.20;;;;;;5079080;28;20032;-68
2021/07/21 07:54:04;;;;;;;23.10;14.70;;;25.20;52.30;;;;;;5078010;28;20032;-71
2021/07/21 07:56:31;;;;;;;22.92;17.35;;;25.30;51.70;;;;;;5079395;28;20479;-69
2021/07/21 07:58:57;;;;;;;20.60;15.20;;;25.30;50.50;;;;;;5081043;28;20043;-69
2021/07/21 08:01:24;;;;;;;20.38;14.95;;;25.50;50.90;;;;;;5074616;28;20040;-69
2021/07/21 08:03:50;;;;;;;19.15;14.63;;;25.70;50.70;;;;;;5082597;28;20047;-71
2021/07/21 08:06:16;;;;;;;24.60;16.33;;;25.80;50.10;;;;;;5079092;28;20057;-69
2021/07/21 08:08:42;;;;;;;20.55;15.20;;;25.80;48.40;;;;;;5081855;28;20048;-70
2021/07/21 08:11:09;;;;;;;21.33;15.35;;;26.00;49.60;;;;;;5077367;28;20560;-70
2021/07/21 08:13:35;;;;;;;21.13;15.38;;;25.80;48.80;;;;;;5080925;28;20024;-68
2021/07/21 08:16:00;;;;;;;21.95;15.57;;;25.80;49.40;;;;;;5076159;28;20433;-70
2021/07/21 08:18:26;;;;;;;19.20;15.13;;;26.10;48.70;;;;;;5082385;28;20040;-70
2021/07/21 08:20:52;;;;;;;23.48;15.88;;;26.10;49.00;;;;;;5082502;28;20035;-68
2021/07/21 08:23:17;;;;;;;19.30;14.98;;;26.00;48.00;;;;;;5078152;28;20447;-69
2021/07/21 08:25:44;;;;;;;19.35;14.40;;;26.20;49.30;;;;;;5077830;28;20447;-70
2021/07/21 08:28:14;;;;;;;21.45;14.43;;;26.10;47.60;;;;;;5079250;28;20115;-68
2021/07/21 08:30:41;;;;;;;21.50;15.23;;;26.10;47.90;;;;;;5078171;28;20470;-69
2021/07/21 08:33:06;;;;;;;21.25;15.77;;;26.20;47.50;;;;;;5080302;28;20680;-71
2021/07/21 08:35:32;;;;;;;20.58;14.38;;;26.20;48.50;;;;;;5074266;28;20036;-69
2021/07/21 08:38:00;;;;;;;21.17;14.60;;;26.50;48.20;;;;;;5077303;28;20451;-69
2021/07/21 08:40:27;;;;;;;19.20;13.88;;;26.60;47.90;;;;;;5077271;28;20448;-68
2021/07/21 08:42:54;;;;;;;19.35;14.15;;;26.70;48.70;;;;;;5073503;28;20358;-70
2021/07/21 08:45:20;;;;;;;21.83;15.65;;;26.80;47.10;;;;;;5078311;28;20467;-72
2021/07/21 08:47:46;;;;;;;22.15;14.70;;;27.00;47.00;;;;;;5081699;28;20058;-69
2021/07/21 08:50:12;;;;;;;22.85;15.60;;;26.80;47.80;;;;;;5081020;28;20076;-68
2021/07/21 08:52:39;;;;;;;18.95;14.18;;;26.90;46.10;;;;;;5080767;28;20146;-69
2021/07/21 08:55:12;;;;;;;19.67;14.98;;;26.90;48.10;;;;;;5072776;28;20024;-68
2021/07/21 08:57:38;;;;;;;;;;;27.00;46.40;;;;;;5076171;28;20032;-69
2021/07/21 09:00:14;;;;;;;22.77;15.95;;;27.10;45.90;;;;;;5069922;28;19915;-71
2021/07/21 09:02:42;;;;;;;20.92;14.45;;;27.40;46.00;;;;;;5077069;28;20056;-69
2021/07/21 09:05:10;;;;;;;27.60;16.95;;;27.60;45.70;;;;;;5083124;28;20118;-69
2021/07/21 09:07:37;;;;;;;26.88;16.52;;;27.30;45.70;;;;;;5078443;28;20043;-68
2021/07/21 09:10:23;;;;;;;22.10;15.95;;;27.50;44.60;;;;;;5077679;28;20024;-69
2021/07/21 09:12:51;;;;;;;22.70;16.02;;;27.70;44.00;;;;;;5077954;28;20032;-68
2021/07/21 09:15:22;;;;;;;21.67;16.20;;;27.80;44.90;;;;;;5079971;28;20044;-69
2021/07/21 09:18:04;;;;;;;22.83;16.35;;;27.80;43.90;;;;;;5080401;28;20149;-69
2021/07/21 09:20:30;;;;;;;21.67;15.20;;;27.90;44.60;;;;;;5073778;28;20071;-68
2021/07/21 09:22:56;;;;;;;21.05;15.88;;;27.60;45.40;;;;;;5074750;28;20482;-68
2021/07/21 09:25:25;;;;;;;22.42;16.70;;;27.60;44.20;;;;;;5077500;28;20036;-68
2021/07/21 09:28:02;;;;;;;21.70;15.90;;;27.80;44.40;;;;;;5078698;28;20040;-68
2021/07/21 09:30:30;;;;;;;23.30;16.58;;;28.00;45.10;;;;;;5078259;28;20069;-68
2021/07/21 09:32:59;;;;;;;23.77;16.73;;;27.30;44.10;;;;;;5080471;28;20499;-69
2021/07/21 09:35:35;;;;;;;21.30;14.88;;;27.30;44.20;;;;;;5082007;28;20043;-68
2021/07/21 09:38:05;;;;;;;22.45;16.02;;;27.10;45.60;;;;;;5079020;28;20391;-68
2021/07/21 09:40:31;;;;;;;22.00;15.63;;;27.50;43.50;;;;;;5077202;28;20442;-69
2021/07/21 09:42:57;;;;;;;22.58;15.38;;;27.50;46.10;;;;;;5080674;28;20040;-68
2021/07/21 09:45:23;;;;;;;22.65;16.58;;;27.60;44.90;;;;;;5078652;28;20051;-68
2021/07/21 09:47:55;;;;;;;20.00;14.52;;;27.50;44.40;;;;;;5078882;28;20147;-68
2021/07/21 09:50:24;;;;;;;18.20;13.32;;;27.50;44.00;;;;;;5071552;28;20418;-69
2021/07/21 09:53:01;;;;;;;20.55;14.88;;;27.50;43.80;;;;;;5075090;28;20043;-68
2021/07/21 09:55:27;;;;;;;23.92;15.88;;;27.50;43.10;;;;;;5076072;28;20036;-67
2021/07/21 09:58:07;;;;;;;19.98;15.35;;;27.50;44.10;;;;;;5079558;28;20808;-68
2021/07/21 10:00:39;;;;;;;17.35;12.55;;;27.80;44.70;;;;;;5073817;28;20101;-69
2021/07/21 10:03:22;;;;;;;18.52;12.40;;;28.00;42.90;;;;;;5077857;28;20040;-68
2021/07/21 10:05:55;;;;;;;20.58;15.68;;;27.90;43.50;;;;;;5074567;28;20400;-68
2021/07/21 10:08:52;;;;;;;19.65;14.98;;;28.10;43.90;;;;;;5078757;28;20044;-70
2021/07/21 10:11:33;;;;;;;20.88;14.65;;;28.00;44.80;;;;;;5077312;28;20037;-69
2021/07/21 10:14:01;;;;;;;21.35;15.60;;;27.80;43.50;;;;;;5075870;28;20382;-72
2021/07/21 10:16:36;;;;;;;22.98;15.70;;;27.30;44.20;;;;;;5082023;28;20157;-72
2021/07/21 10:19:23;;;;;;;20.50;15.88;;;26.70;46.00;;;;;;5081439;28;20398;-74
2021/07/21 10:21:53;;;;;;;19.38;13.45;;;26.70;45.90;;;;;;5076546;28;20491;-73
2021/07/21 10:24:21;;;;;;;22.35;16.02;;;26.80;47.10;;;;;;5078128;28;20355;-74
2021/07/21 10:26:47;;;;;;;19.92;14.88;;;27.10;45.60;;;;;;5076168;28;20044;-73
2021/07/21 10:29:13;;;;;;;20.92;14.32;;;27.40;46.40;;;;;;5078620;28;20032;-72
2021/07/21 10:31:40;;;;;;;20.20;15.57;;;27.90;44.90;;;;;;5070740;28;20028;-74
2021/07/21 10:34:06;;;;;;;19.27;15.02;;;28.10;44.60;;;;;;5081048;28;20089;-75
2021/07/21 10:36:34;;;;;;;17.63;12.68;;;28.10;44.20;;;;;;5079124;28;21203;-74
2021/07/21 10:39:09;;;;;;;16.85;12.82;;;28.50;43.50;;;;;;5082403;28;20475;-75
2021/07/21 10:41:36;;;;;;;17.83;13.05;;;28.60;42.60;;;;;;5076411;28;20032;-75
2021/07/21 10:44:01;;;;;;;18.52;13.57;;;28.30;42.30;;;;;;5068971;28;20039;-75
2021/07/21 10:46:33;;;;;;;15.30;11.70;;;28.70;42.60;;;;;;5071184;28;20032;-70
2021/07/21 11:00:25;;;;;;;21.65;13.73;;;28.20;41.50;;;;;;5076323;28;20119;-69
2021/07/21 11:02:52;;;;;;;16.33;12.95;;;28.40;42.50;;;;;;5069177;28;20040;-69
2021/07/21 11:05:31;;;;;;;18.10;13.18;;;28.50;43.70;;;;;;5072674;28;20050;-69
2021/07/21 11:07:58;;;;;;;15.90;12.50;;;28.90;41.90;;;;;;5075765;28;20040;-70
2021/07/21 11:10:35;;;;;;;15.93;13.00;;;29.20;41.00;;;;;;5079500;28;20040;-70
2021/07/21 11:13:05;;;;;;;17.30;13.50;;;28.60;40.10;;;;;;5077502;28;20028;-72
2021/07/21 11:15:41;;;;;;;19.65;13.48;;;28.20;42.00;;;;;;5073860;28;20044;-69
2021/07/21 11:18:24;;;;;;;15.30;12.35;;;28.30;41.20;;;;;;5074039;28;20040;-69
2021/07/21 11:21:02;;;;;;;20.67;13.27;;;27.70;42.20;;;;;;5075723;28;20028;-68
2021/07/21 11:23:52;;;;;;;18.52;13.68;;;27.30;43.00;;;;;;5076164;28;20040;-69
2021/07/21 11:26:35;;;;;;;17.75;12.43;;;27.50;43.90;;;;;;5078758;28;20071;-69
2021/07/21 11:29:27;;;;;;;18.02;13.10;;;28.20;42.00;;;;;;5072753;28;20028;-72
2021/07/21 11:31:55;;;;;;;17.52;13.48;;;28.60;42.90;;;;;;5076105;28;20052;-69
2021/07/21 11:34:41;;;;;;;16.75;12.02;;;29.00;42.30;;;;;;5074749;28;21261;-69
2021/07/21 11:37:28;;;;;;;16.77;12.95;;;29.50;41.40;;;;;;5077263;28;20059;-69
2021/07/21 11:39:58;;;;;;;16.48;12.73;;;29.90;40.40;;;;;;5074006;28;20071;-69
2021/07/21 11:42:25;;;;;;;16.83;13.07;;;29.80;40.40;;;;;;5078256;28;20036;-70
2021/07/21 11:45:12;;;;;;;16.95;13.48;;;30.00;41.00;;;;;;5081030;28;20471;-68
2021/07/21 11:48:00;;;;;;;16.08;12.23;;;29.70;39.20;;;;;;5075979;28;20131;-69
2021/07/21 11:50:30;;;;;;;16.92;12.73;;;29.60;40.90;;;;;;5078351;28;20059;-68
2021/07/21 11:53:04;;;;;;;20.25;13.48;;;29.80;40.30;;;;;;5074954;28;20063;-68
2021/07/21 11:55:32;;;;;;;16.35;12.15;;;30.00;40.30;;;;;;5076343;28;20395;-68
2021/07/21 11:57:58;;;;;;;15.13;11.57;;;30.10;40.30;;;;;;5083783;28;20028;-68
2021/07/21 12:00:25;;;;;;;16.40;12.55;;;30.20;39.20;;;;;;5073649;28;20499;-69
2021/07/21 12:03:02;;;;;;;16.98;12.68;;;30.30;39.60;;;;;;5074312;28;20413;-68
2021/07/21 12:05:29;;;;;;;17.02;13.05;;;30.00;40.00;;;;;;5076056;28;20127;-68
2021/07/21 12:08:00;;;;;;;16.65;12.65;;;29.50;40.50;;;;;;5083376;28;20086;-67
2021/07/21 12:10:26;;;;;;;16.67;13.55;;;28.70;42.30;;;;;;5079227;28;20357;-68
2021/07/21 12:12:53;;;;;;;15.95;12.75;;;29.00;41.80;;;;;;5078757;28;20043;-69
2021/07/21 12:15:19;;;;;;;16.15;12.80;;;29.00;41.40;;;;;;5078167;28;20024;-69
2021/07/21 12:17:45;;;;;;;17.75;12.98;;;29.50;41.10;;;;;;5078632;28;20043;-68
2021/07/21 12:20:13;;;;;;;18.95;13.98;;;30.00;40.40;;;;;;5074920;28;20056;-68
2021/07/21 12:22:42;;;;;;;17.65;13.70;;;29.90;40.00;;;;;;5078851;28;20443;-70
2021/07/21 12:25:10;;;;;;;18.17;13.73;;;29.80;38.90;;;;;;5074684;28;20051;-68
2021/07/21 12:27:38;;;;;;;15.95;12.90;;;29.60;40.10;;;;;;5081064;28;20044;-68
2021/07/21 12:30:10;;;;;;;17.23;13.13;;;29.90;39.10;;;;;;5077190;28;20020;-69
2021/07/21 12:32:37;;;;;;;16.10;13.25;;;30.30;39.60;;;;;;5077646;28;20032;-68
2021/07/21 12:35:05;;;;;;;18.55;13.32;;;30.50;37.70;;;;;;5085341;28;20028;-69
2021/07/21 12:37:36;;;;;;;16.10;12.55;;;30.50;38.90;;;;;;5082967;28;20036;-68
2021/07/21 12:40:07;;;;;;;14.95;12.50;;;30.60;38.00;;;;;;5081709;28;20473;-71
2021/07/21 12:42:33;;;;;;;17.27;13.45;;;30.00;38.70;;;;;;5081100;28;20109;-68
2021/07/21 12:45:02;;;;;;;18.55;13.35;;;30.00;40.00;;;;;;5075832;28;20065;-68
2021/07/21 12:47:33;;;;;;;17.05;12.73;;;30.10;38.10;;;;;;5075054;28;20115;-68
2021/07/21 12:50:09;;;;;;;16.63;12.68;;;30.20;39.50;;;;;;5081274;28;20039;-68